sensor_id;sensor_type;location;lat;lon;timestamp;P1;durP1;ratioP1;P2;durP2;ratioP2
55684;SDS011;41883;49.544;8.646;2022-12-07T00:01:30;5.97;;;3.65;;
55684;SDS011;41883;49.544;8.646;2022-12-07T00:03:57;5.38;;;3.08;;
55684;SDS011;41883;49.544;8.646;2022-12-07T00:06:25;5.25;;;3.78;;
55684;SDS011;41883;49.544;8.646;2022-12-07T00:08:51;7.78;;;4.50;;
55684;SDS011;41883;49.544;8.646;2022-12-07T00:11:22;7.17;;;4.60;;
55684;SDS011;41883;49.544;8.646;2022-12-07T00:13:51;7.95;;;5.10;;
55684;SDS011;41883;49.544;8.646;2022-12-07T00:16:18;9.10;;;5.90;;
55684;SDS011;41883;49.544;8.646;2022-12-07T00:18:43;12.20;;;7.15;;
55684;SDS011;41883;49.544;8.646;2022-12-07T00:23:34;9.50;;;6.07;;
55684;SDS011;41883;49.544;8.646;2022-12-07T00:26:03;10.33;;;5.80;;
55684;SDS011;41883;49.544;8.646;2022-12-07T00:28:28;9.25;;;5.93;;
55684;SDS011;41883;49.544;8.646;2022-12-07T00:30:59;8.27;;;5.20;;
55684;SDS011;41883;49.544;8.646;2022-12-07T00:33:24;8.23;;;5.40;;
55684;SDS011;41883;49.544;8.646;2022-12-07T00:35:54;7.57;;;4.63;;
55684;SDS011;41883;49.544;8.646;2022-12-07T00:38:19;6.77;;;4.23;;
55684;SDS011;41883;49.544;8.646;2022-12-07T00:40:53;6.17;;;3.97;;
55684;SDS011;41883;49.544;8.646;2022-12-07T00:43:18;8.00;;;5.65;;
55684;SDS011;41883;49.544;8.646;2022-12-07T00:45:43;7.30;;;4.97;;
55684;SDS011;41883;49.544;8.646;2022-12-07T00:48:08;6.13;;;3.93;;
55684;SDS011;41883;49.544;8.646;2022-12-07T00:50:33;6.50;;;4.20;;
55684;SDS011;41883;49.544;8.646;2022-12-07T00:52:59;7.53;;;4.90;;
55684;SDS011;41883;49.544;8.646;2022-12-07T00:55:24;8.10;;;4.95;;
55684;SDS011;41883;49.544;8.646;2022-12-07T00:57:49;7.63;;;4.93;;
55684;SDS011;41883;49.544;8.646;2022-12-07T01:00:14;6.63;;;4.77;;
55684;SDS011;41883;49.544;8.646;2022-12-07T01:02:40;8.20;;;5.32;;
55684;SDS011;41883;49.544;8.646;2022-12-07T01:05:05;8.73;;;5.37;;
55684;SDS011;41883;49.544;8.646;2022-12-07T01:07:30;7.53;;;4.78;;
55684;SDS011;41883;49.544;8.646;2022-12-07T01:09:58;5.97;;;4.00;;
55684;SDS011;41883;49.544;8.646;2022-12-07T01:12:24;8.43;;;5.05;;
55684;SDS011;41883;49.544;8.646;2022-12-07T01:14:49;10.63;;;6.23;;
55684;SDS011;41883;49.544;8.646;2022-12-07T01:17:14;10.00;;;6.27;;
55684;SDS011;41883;49.544;8.646;2022-12-07T01:19:39;8.87;;;5.83;;
55684;SDS011;41883;49.544;8.646;2022-12-07T01:22:04;8.93;;;6.13;;
55684;SDS011;41883;49.544;8.646;2022-12-07T01:24:30;11.07;;;6.30;;
55684;SDS011;41883;49.544;8.646;2022-12-07T01:26:55;9.63;;;5.93;;
55684;SDS011;41883;49.544;8.646;2022-12-07T01:29:20;11.17;;;6.47;;
55684;SDS011;41883;49.544;8.646;2022-12-07T01:31:47;9.27;;;6.20;;
55684;SDS011;41883;49.544;8.646;2022-12-07T01:34:13;10.35;;;6.20;;
55684;SDS011;41883;49.544;8.646;2022-12-07T01:36:38;9.17;;;6.23;;
55684;SDS011;41883;49.544;8.646;2022-12-07T01:39:04;10.60;;;6.07;;
55684;SDS011;41883;49.544;8.646;2022-12-07T01:41:30;8.27;;;5.68;;
55684;SDS011;41883;49.544;8.646;2022-12-07T01:44:10;8.60;;;5.00;;
55684;SDS011;41883;49.544;8.646;2022-12-07T01:46:37;8.50;;;5.83;;
55684;SDS011;41883;49.544;8.646;2022-12-07T01:49:03;9.23;;;5.65;;
55684;SDS011;41883;49.544;8.646;2022-12-07T01:51:28;7.68;;;5.05;;
55684;SDS011;41883;49.544;8.646;2022-12-07T01:53:54;7.15;;;4.75;;
55684;SDS011;41883;49.544;8.646;2022-12-07T01:56:20;8.18;;;5.68;;
55684;SDS011;41883;49.544;8.646;2022-12-07T01:58:48;8.70;;;5.60;;
55684;SDS011;41883;49.544;8.646;2022-12-07T02:01:14;8.63;;;5.13;;
55684;SDS011;41883;49.544;8.646;2022-12-07T02:03:40;6.88;;;4.93;;
55684;SDS011;41883;49.544;8.646;2022-12-07T02:06:06;8.85;;;5.10;;
55684;SDS011;41883;49.544;8.646;2022-12-07T02:08:32;7.47;;;5.05;;
55684;SDS011;41883;49.544;8.646;2022-12-07T02:10:57;8.98;;;6.25;;
55684;SDS011;41883;49.544;8.646;2022-12-07T02:13:23;11.13;;;6.88;;
55684;SDS011;41883;49.544;8.646;2022-12-07T02:21:01;13.95;;;8.48;;
55684;SDS011;41883;49.544;8.646;2022-12-07T02:24:36;11.27;;;7.25;;
55684;SDS011;41883;49.544;8.646;2022-12-07T02:29:10;10.90;;;6.60;;
55684;SDS011;41883;49.544;8.646;2022-12-07T02:31:37;13.35;;;7.30;;
55684;SDS011;41883;49.544;8.646;2022-12-07T02:34:08;11.80;;;6.88;;
55684;SDS011;41883;49.544;8.646;2022-12-07T02:36:40;10.75;;;6.25;;
55684;SDS011;41883;49.544;8.646;2022-12-07T02:39:09;9.30;;;6.35;;
55684;SDS011;41883;49.544;8.646;2022-12-07T02:41:38;10.00;;;5.80;;
55684;SDS011;41883;49.544;8.646;2022-12-07T02:44:06;7.95;;;5.13;;
55684;SDS011;41883;49.544;8.646;2022-12-07T02:46:34;7.78;;;5.20;;
55684;SDS011;41883;49.544;8.646;2022-12-07T02:49:01;7.40;;;4.63;;
55684;SDS011;41883;49.544;8.646;2022-12-07T02:51:29;7.85;;;4.70;;
55684;SDS011;41883;49.544;8.646;2022-12-07T02:53:54;8.30;;;5.20;;
55684;SDS011;41883;49.544;8.646;2022-12-07T03:03:35;12.47;;;7.40;;
55684;SDS011;41883;49.544;8.646;2022-12-07T03:08:44;11.23;;;7.05;;
55684;SDS011;41883;49.544;8.646;2022-12-07T03:16:27;12.27;;;7.80;;
55684;SDS011;41883;49.544;8.646;2022-12-07T03:18:57;13.05;;;7.88;;
55684;SDS011;41883;49.544;8.646;2022-12-07T03:21:24;10.05;;;6.18;;
55684;SDS011;41883;49.544;8.646;2022-12-07T03:23:52;10.65;;;6.35;;
55684;SDS011;41883;49.544;8.646;2022-12-07T03:26:18;10.07;;;6.50;;
55684;SDS011;41883;49.544;8.646;2022-12-07T03:28:45;14.00;;;7.85;;
55684;SDS011;41883;49.544;8.646;2022-12-07T03:31:17;12.07;;;7.95;;
55684;SDS011;41883;49.544;8.646;2022-12-07T03:33:47;12.87;;;7.97;;
55684;SDS011;41883;49.544;8.646;2022-12-07T03:36:24;14.65;;;8.38;;
55684;SDS011;41883;49.544;8.646;2022-12-07T03:41:23;13.57;;;8.10;;
55684;SDS011;41883;49.544;8.646;2022-12-07T03:43:49;13.13;;;7.85;;
55684;SDS011;41883;49.544;8.646;2022-12-07T03:46:26;12.07;;;7.50;;
55684;SDS011;41883;49.544;8.646;2022-12-07T03:48:58;12.65;;;7.95;;
55684;SDS011;41883;49.544;8.646;2022-12-07T03:51:28;11.00;;;7.03;;
55684;SDS011;41883;49.544;8.646;2022-12-07T03:56:21;13.75;;;7.88;;
55684;SDS011;41883;49.544;8.646;2022-12-07T03:58:47;11.25;;;6.93;;
55684;SDS011;41883;49.544;8.646;2022-12-07T04:01:13;11.85;;;7.32;;
55684;SDS011;41883;49.544;8.646;2022-12-07T04:03:38;11.07;;;6.90;;
55684;SDS011;41883;49.544;8.646;2022-12-07T04:06:03;11.60;;;7.67;;
55684;SDS011;41883;49.544;8.646;2022-12-07T04:08:29;11.73;;;7.43;;
55684;SDS011;41883;49.544;8.646;2022-12-07T04:10:54;14.10;;;8.17;;
55684;SDS011;41883;49.544;8.646;2022-12-07T04:13:19;13.27;;;7.73;;
55684;SDS011;41883;49.544;8.646;2022-12-07T04:15:44;12.33;;;8.03;;
55684;SDS011;41883;49.544;8.646;2022-12-07T04:18:09;10.95;;;7.15;;
55684;SDS011;41883;49.544;8.646;2022-12-07T04:20:35;13.57;;;8.37;;
55684;SDS011;41883;49.544;8.646;2022-12-07T04:23:00;11.73;;;7.10;;
55684;SDS011;41883;49.544;8.646;2022-12-07T04:25:25;12.40;;;7.90;;
55684;SDS011;41883;49.544;8.646;2022-12-07T04:27:50;12.33;;;7.73;;
55684;SDS011;41883;49.544;8.646;2022-12-07T04:30:16;12.18;;;7.28;;
55684;SDS011;41883;49.544;8.646;2022-12-07T04:32:41;12.45;;;7.70;;
55684;SDS011;41883;49.544;8.646;2022-12-07T04:35:06;11.37;;;7.23;;
55684;SDS011;41883;49.544;8.646;2022-12-07T04:37:31;12.45;;;7.55;;
55684;SDS011;41883;49.544;8.646;2022-12-07T04:39:57;12.80;;;7.90;;
55684;SDS011;41883;49.544;8.646;2022-12-07T04:42:22;10.37;;;7.27;;
55684;SDS011;41883;49.544;8.646;2022-12-07T04:44:47;11.73;;;7.67;;
55684;SDS011;41883;49.544;8.646;2022-12-07T04:47:12;9.47;;;6.33;;
55684;SDS011;41883;49.544;8.646;2022-12-07T04:49:37;8.77;;;5.70;;
55684;SDS011;41883;49.544;8.646;2022-12-07T04:52:03;8.17;;;5.30;;
55684;SDS011;41883;49.544;8.646;2022-12-07T04:54:28;11.80;;;6.43;;
55684;SDS011;41883;49.544;8.646;2022-12-07T04:56:53;12.45;;;8.05;;
55684;SDS011;41883;49.544;8.646;2022-12-07T04:59:18;13.67;;;8.20;;
55684;SDS011;41883;49.544;8.646;2022-12-07T05:01:43;11.70;;;7.40;;
55684;SDS011;41883;49.544;8.646;2022-12-07T05:04:09;11.63;;;7.33;;
55684;SDS011;41883;49.544;8.646;2022-12-07T05:06:34;13.00;;;7.55;;
55684;SDS011;41883;49.544;8.646;2022-12-07T05:09:00;10.82;;;6.60;;
55684;SDS011;41883;49.544;8.646;2022-12-07T05:11:25;12.57;;;7.57;;
55684;SDS011;41883;49.544;8.646;2022-12-07T05:16:30;10.80;;;7.40;;
55684;SDS011;41883;49.544;8.646;2022-12-07T05:18:56;10.30;;;7.17;;
55684;SDS011;41883;49.544;8.646;2022-12-07T05:21:21;11.87;;;6.90;;
55684;SDS011;41883;49.544;8.646;2022-12-07T05:23:46;9.82;;;6.38;;
55684;SDS011;41883;49.544;8.646;2022-12-07T05:26:12;11.17;;;7.17;;
55684;SDS011;41883;49.544;8.646;2022-12-07T05:28:37;8.82;;;5.63;;
55684;SDS011;41883;49.544;8.646;2022-12-07T05:31:02;9.82;;;6.50;;
55684;SDS011;41883;49.544;8.646;2022-12-07T05:33:28;14.13;;;7.25;;
55684;SDS011;41883;49.544;8.646;2022-12-07T05:35:53;10.38;;;6.40;;
55684;SDS011;41883;49.544;8.646;2022-12-07T05:38:18;9.40;;;6.40;;
55684;SDS011;41883;49.544;8.646;2022-12-07T05:40:43;10.43;;;6.43;;
55684;SDS011;41883;49.544;8.646;2022-12-07T05:43:08;9.70;;;6.30;;
55684;SDS011;41883;49.544;8.646;2022-12-07T05:45:34;11.02;;;6.75;;
55684;SDS011;41883;49.544;8.646;2022-12-07T05:47:59;10.77;;;7.50;;
55684;SDS011;41883;49.544;8.646;2022-12-07T05:50:24;11.83;;;7.40;;
55684;SDS011;41883;49.544;8.646;2022-12-07T05:52:49;12.25;;;7.05;;
55684;SDS011;41883;49.544;8.646;2022-12-07T05:55:15;11.17;;;7.40;;
55684;SDS011;41883;49.544;8.646;2022-12-07T05:57:40;13.00;;;6.90;;
55684;SDS011;41883;49.544;8.646;2022-12-07T06:00:25;14.05;;;7.15;;
55684;SDS011;41883;49.544;8.646;2022-12-07T06:02:51;12.93;;;7.85;;
55684;SDS011;41883;49.544;8.646;2022-12-07T06:05:16;12.27;;;7.75;;
55684;SDS011;41883;49.544;8.646;2022-12-07T06:07:41;12.23;;;6.93;;
55684;SDS011;41883;49.544;8.646;2022-12-07T06:10:06;11.83;;;6.27;;
55684;SDS011;41883;49.544;8.646;2022-12-07T06:12:32;9.90;;;6.55;;
55684;SDS011;41883;49.544;8.646;2022-12-07T06:15:00;10.27;;;6.20;;
55684;SDS011;41883;49.544;8.646;2022-12-07T06:17:25;10.00;;;6.22;;
55684;SDS011;41883;49.544;8.646;2022-12-07T06:19:51;8.95;;;5.80;;
55684;SDS011;41883;49.544;8.646;2022-12-07T06:22:16;10.55;;;6.07;;
55684;SDS011;41883;49.544;8.646;2022-12-07T06:24:42;8.80;;;5.90;;
55684;SDS011;41883;49.544;8.646;2022-12-07T06:27:08;9.43;;;5.82;;
55684;SDS011;41883;49.544;8.646;2022-12-07T06:29:33;10.27;;;6.40;;
55684;SDS011;41883;49.544;8.646;2022-12-07T06:31:58;7.73;;;5.40;;
55684;SDS011;41883;49.544;8.646;2022-12-07T06:34:24;8.30;;;5.63;;
55684;SDS011;41883;49.544;8.646;2022-12-07T06:36:49;8.20;;;5.43;;
55684;SDS011;41883;49.544;8.646;2022-12-07T06:39:20;9.88;;;5.25;;
55684;SDS011;41883;49.544;8.646;2022-12-07T06:41:46;8.75;;;5.25;;
55684;SDS011;41883;49.544;8.646;2022-12-07T06:44:11;8.50;;;5.35;;
55684;SDS011;41883;49.544;8.646;2022-12-07T06:46:36;8.85;;;6.20;;
55684;SDS011;41883;49.544;8.646;2022-12-07T06:49:02;9.68;;;6.30;;
55684;SDS011;41883;49.544;8.646;2022-12-07T06:51:27;10.32;;;5.85;;
55684;SDS011;41883;49.544;8.646;2022-12-07T06:53:52;9.23;;;5.80;;
55684;SDS011;41883;49.544;8.646;2022-12-07T06:56:18;8.73;;;5.80;;
55684;SDS011;41883;49.544;8.646;2022-12-07T06:58:43;8.25;;;5.68;;
55684;SDS011;41883;49.544;8.646;2022-12-07T07:01:11;11.03;;;6.30;;
55684;SDS011;41883;49.544;8.646;2022-12-07T07:03:37;11.10;;;7.22;;
55684;SDS011;41883;49.544;8.646;2022-12-07T07:06:02;10.10;;;6.32;;
55684;SDS011;41883;49.544;8.646;2022-12-07T07:08:27;10.98;;;6.57;;
55684;SDS011;41883;49.544;8.646;2022-12-07T07:10:52;11.97;;;7.63;;
55684;SDS011;41883;49.544;8.646;2022-12-07T07:13:18;12.50;;;7.67;;
55684;SDS011;41883;49.544;8.646;2022-12-07T07:15:43;10.75;;;7.40;;
55684;SDS011;41883;49.544;8.646;2022-12-07T07:18:08;16.02;;;7.97;;
55684;SDS011;41883;49.544;8.646;2022-12-07T07:20:34;11.53;;;7.33;;
55684;SDS011;41883;49.544;8.646;2022-12-07T07:22:59;11.88;;;7.93;;
55684;SDS011;41883;49.544;8.646;2022-12-07T07:25:24;9.90;;;6.63;;
55684;SDS011;41883;49.544;8.646;2022-12-07T07:27:49;10.27;;;7.07;;
55684;SDS011;41883;49.544;8.646;2022-12-07T07:30:15;10.77;;;6.80;;
55684;SDS011;41883;49.544;8.646;2022-12-07T07:32:40;10.30;;;6.78;;
55684;SDS011;41883;49.544;8.646;2022-12-07T07:35:06;10.25;;;6.32;;
55684;SDS011;41883;49.544;8.646;2022-12-07T07:37:31;10.07;;;6.28;;
55684;SDS011;41883;49.544;8.646;2022-12-07T07:39:56;9.75;;;6.47;;
55684;SDS011;41883;49.544;8.646;2022-12-07T07:42:22;12.57;;;7.47;;
55684;SDS011;41883;49.544;8.646;2022-12-07T07:44:47;11.32;;;7.55;;
55684;SDS011;41883;49.544;8.646;2022-12-07T07:47:12;12.95;;;8.05;;
55684;SDS011;41883;49.544;8.646;2022-12-07T07:49:37;12.37;;;7.73;;
55684;SDS011;41883;49.544;8.646;2022-12-07T07:52:04;16.05;;;8.85;;
55684;SDS011;41883;49.544;8.646;2022-12-07T07:54:30;17.35;;;10.52;;
55684;SDS011;41883;49.544;8.646;2022-12-07T07:56:55;14.85;;;9.85;;
55684;SDS011;41883;49.544;8.646;2022-12-07T07:59:20;12.15;;;8.05;;
55684;SDS011;41883;49.544;8.646;2022-12-07T08:01:47;15.68;;;9.68;;
55684;SDS011;41883;49.544;8.646;2022-12-07T08:04:12;12.52;;;8.52;;
55684;SDS011;41883;49.544;8.646;2022-12-07T08:06:41;13.57;;;8.38;;
55684;SDS011;41883;49.544;8.646;2022-12-07T08:09:07;13.93;;;8.65;;
55684;SDS011;41883;49.544;8.646;2022-12-07T08:11:33;14.15;;;8.85;;
55684;SDS011;41883;49.544;8.646;2022-12-07T08:13:58;13.25;;;8.77;;
55684;SDS011;41883;49.544;8.646;2022-12-07T08:16:23;15.40;;;9.67;;
55684;SDS011;41883;49.544;8.646;2022-12-07T08:18:48;13.00;;;9.00;;
55684;SDS011;41883;49.544;8.646;2022-12-07T08:21:14;14.45;;;9.35;;
55684;SDS011;41883;49.544;8.646;2022-12-07T08:23:40;13.07;;;8.45;;
55684;SDS011;41883;49.544;8.646;2022-12-07T08:26:15;12.63;;;8.27;;
55684;SDS011;41883;49.544;8.646;2022-12-07T08:28:41;13.75;;;9.10;;
55684;SDS011;41883;49.544;8.646;2022-12-07T08:31:08;15.55;;;9.90;;
55684;SDS011;41883;49.544;8.646;2022-12-07T08:33:35;15.27;;;9.52;;
55684;SDS011;41883;49.544;8.646;2022-12-07T08:36:01;15.65;;;9.23;;
55684;SDS011;41883;49.544;8.646;2022-12-07T08:38:26;16.30;;;10.02;;
55684;SDS011;41883;49.544;8.646;2022-12-07T08:40:55;14.60;;;9.37;;
55684;SDS011;41883;49.544;8.646;2022-12-07T08:43:21;14.23;;;9.00;;
55684;SDS011;41883;49.544;8.646;2022-12-07T08:45:47;15.68;;;9.73;;
55684;SDS011;41883;49.544;8.646;2022-12-07T08:48:13;14.73;;;9.35;;
55684;SDS011;41883;49.544;8.646;2022-12-07T08:50:38;13.35;;;8.95;;
55684;SDS011;41883;49.544;8.646;2022-12-07T08:53:04;15.60;;;9.30;;
55684;SDS011;41883;49.544;8.646;2022-12-07T08:55:30;13.55;;;9.05;;
55684;SDS011;41883;49.544;8.646;2022-12-07T08:57:56;13.43;;;8.82;;
55684;SDS011;41883;49.544;8.646;2022-12-07T09:00:22;13.85;;;9.13;;
55684;SDS011;41883;49.544;8.646;2022-12-07T09:02:50;13.55;;;9.32;;
55684;SDS011;41883;49.544;8.646;2022-12-07T09:05:16;15.60;;;9.45;;
55684;SDS011;41883;49.544;8.646;2022-12-07T09:07:42;15.77;;;9.30;;
55684;SDS011;41883;49.544;8.646;2022-12-07T09:10:08;15.13;;;9.98;;
55684;SDS011;41883;49.544;8.646;2022-12-07T09:12:33;14.93;;;9.65;;
55684;SDS011;41883;49.544;8.646;2022-12-07T09:14:58;15.18;;;9.20;;
55684;SDS011;41883;49.544;8.646;2022-12-07T09:17:25;17.33;;;9.88;;
55684;SDS011;41883;49.544;8.646;2022-12-07T09:19:51;14.80;;;8.77;;
55684;SDS011;41883;49.544;8.646;2022-12-07T09:22:16;16.50;;;9.65;;
55684;SDS011;41883;49.544;8.646;2022-12-07T09:24:41;16.33;;;9.57;;
55684;SDS011;41883;49.544;8.646;2022-12-07T09:27:06;17.60;;;10.00;;
55684;SDS011;41883;49.544;8.646;2022-12-07T09:29:31;13.83;;;9.17;;
55684;SDS011;41883;49.544;8.646;2022-12-07T09:31:56;13.27;;;9.27;;
55684;SDS011;41883;49.544;8.646;2022-12-07T09:34:22;16.30;;;9.18;;
55684;SDS011;41883;49.544;8.646;2022-12-07T09:36:48;14.77;;;9.38;;
55684;SDS011;41883;49.544;8.646;2022-12-07T09:39:13;15.80;;;9.77;;
55684;SDS011;41883;49.544;8.646;2022-12-07T09:41:39;16.33;;;9.15;;
55684;SDS011;41883;49.544;8.646;2022-12-07T09:44:07;16.13;;;10.43;;
55684;SDS011;41883;49.544;8.646;2022-12-07T09:46:36;16.75;;;10.40;;
55684;SDS011;41883;49.544;8.646;2022-12-07T09:49:02;17.08;;;10.30;;
55684;SDS011;41883;49.544;8.646;2022-12-07T09:51:28;17.02;;;10.90;;
55684;SDS011;41883;49.544;8.646;2022-12-07T09:53:53;17.42;;;10.68;;
55684;SDS011;41883;49.544;8.646;2022-12-07T09:56:19;18.80;;;10.88;;
55684;SDS011;41883;49.544;8.646;2022-12-07T09:58:45;17.55;;;10.82;;
55684;SDS011;41883;49.544;8.646;2022-12-07T10:01:15;16.05;;;10.02;;
55684;SDS011;41883;49.544;8.646;2022-12-07T10:03:42;15.80;;;10.13;;
55684;SDS011;41883;49.544;8.646;2022-12-07T10:06:09;14.98;;;9.23;;
55684;SDS011;41883;49.544;8.646;2022-12-07T10:08:35;16.38;;;9.48;;
55684;SDS011;41883;49.544;8.646;2022-12-07T10:11:01;14.63;;;9.50;;
55684;SDS011;41883;49.544;8.646;2022-12-07T10:13:38;15.57;;;10.18;;
55684;SDS011;41883;49.544;8.646;2022-12-07T10:16:04;18.45;;;10.73;;
55684;SDS011;41883;49.544;8.646;2022-12-07T10:18:30;15.38;;;9.90;;
55684;SDS011;41883;49.544;8.646;2022-12-07T10:21:15;18.23;;;10.90;;
55684;SDS011;41883;49.544;8.646;2022-12-07T10:31:40;15.52;;;9.73;;
55684;SDS011;41883;49.544;8.646;2022-12-07T10:34:12;15.50;;;10.15;;
55684;SDS011;41883;49.544;8.646;2022-12-07T10:36:39;15.35;;;9.95;;
55684;SDS011;41883;49.544;8.646;2022-12-07T10:39:12;16.08;;;9.68;;
55684;SDS011;41883;49.544;8.646;2022-12-07T10:41:57;13.90;;;8.82;;
55684;SDS011;41883;49.544;8.646;2022-12-07T10:44:26;13.82;;;9.15;;
55684;SDS011;41883;49.544;8.646;2022-12-07T10:55:08;16.38;;;9.75;;
55684;SDS011;41883;49.544;8.646;2022-12-07T11:10:07;17.13;;;10.90;;
55684;SDS011;41883;49.544;8.646;2022-12-07T11:12:39;16.38;;;10.75;;
55684;SDS011;41883;49.544;8.646;2022-12-07T11:15:12;17.02;;;11.15;;
55684;SDS011;41883;49.544;8.646;2022-12-07T11:35:45;16.73;;;10.13;;
55684;SDS011;41883;49.544;8.646;2022-12-07T11:38:15;15.43;;;10.77;;
55684;SDS011;41883;49.544;8.646;2022-12-07T11:40:43;17.02;;;10.85;;
55684;SDS011;41883;49.544;8.646;2022-12-07T11:43:24;16.23;;;10.35;;
55684;SDS011;41883;49.544;8.646;2022-12-07T11:45:53;17.02;;;10.30;;
55684;SDS011;41883;49.544;8.646;2022-12-07T11:49:02;18.73;;;11.10;;
55684;SDS011;41883;49.544;8.646;2022-12-07T11:51:09;16.65;;;10.73;;
55684;SDS011;41883;49.544;8.646;2022-12-07T11:53:36;17.83;;;11.45;;
55684;SDS011;41883;49.544;8.646;2022-12-07T11:56:08;15.20;;;9.95;;
55684;SDS011;41883;49.544;8.646;2022-12-07T12:01:48;16.63;;;9.75;;
55684;SDS011;41883;49.544;8.646;2022-12-07T12:04:06;14.38;;;9.77;;
55684;SDS011;41883;49.544;8.646;2022-12-07T12:06:32;14.68;;;9.48;;
55684;SDS011;41883;49.544;8.646;2022-12-07T12:22:19;15.38;;;10.23;;
55684;SDS011;41883;49.544;8.646;2022-12-07T12:24:47;16.42;;;9.85;;
55684;SDS011;41883;49.544;8.646;2022-12-07T12:29:50;15.10;;;9.63;;
55684;SDS011;41883;49.544;8.646;2022-12-07T12:32:17;14.57;;;9.85;;
55684;SDS011;41883;49.544;8.646;2022-12-07T12:37:50;14.87;;;9.50;;
55684;SDS011;41883;49.544;8.646;2022-12-07T12:42:50;14.38;;;9.25;;
55684;SDS011;41883;49.544;8.646;2022-12-07T12:45:20;13.70;;;9.43;;
55684;SDS011;41883;49.544;8.646;2022-12-07T12:50:18;14.05;;;9.70;;
55684;SDS011;41883;49.544;8.646;2022-12-07T12:52:46;12.98;;;8.43;;
55684;SDS011;41883;49.544;8.646;2022-12-07T12:55:15;13.95;;;9.30;;
55684;SDS011;41883;49.544;8.646;2022-12-07T12:57:45;16.80;;;10.10;;
55684;SDS011;41883;49.544;8.646;2022-12-07T13:02:38;16.20;;;10.90;;
55684;SDS011;41883;49.544;8.646;2022-12-07T13:10:25;16.23;;;9.98;;
55684;SDS011;41883;49.544;8.646;2022-12-07T13:17:58;15.90;;;9.73;;
55684;SDS011;41883;49.544;8.646;2022-12-07T13:20:40;15.10;;;9.35;;
55684;SDS011;41883;49.544;8.646;2022-12-07T13:23:05;14.10;;;8.88;;
55684;SDS011;41883;49.544;8.646;2022-12-07T13:25:36;14.60;;;9.13;;
55684;SDS011;41883;49.544;8.646;2022-12-07T13:30:28;12.95;;;7.57;;
55684;SDS011;41883;49.544;8.646;2022-12-07T13:32:55;10.30;;;6.80;;
55684;SDS011;41883;49.544;8.646;2022-12-07T13:35:28;10.25;;;6.35;;
55684;SDS011;41883;49.544;8.646;2022-12-07T13:37:53;12.52;;;7.63;;
55684;SDS011;41883;49.544;8.646;2022-12-07T13:40:19;9.60;;;6.65;;
55684;SDS011;41883;49.544;8.646;2022-12-07T13:42:45;12.35;;;8.15;;
55684;SDS011;41883;49.544;8.646;2022-12-07T13:45:43;11.60;;;7.90;;
55684;SDS011;41883;49.544;8.646;2022-12-07T13:48:22;13.60;;;7.82;;
55684;SDS011;41883;49.544;8.646;2022-12-07T13:50:53;14.38;;;8.65;;
55684;SDS011;41883;49.544;8.646;2022-12-07T13:53:18;11.68;;;7.93;;
55684;SDS011;41883;49.544;8.646;2022-12-07T13:55:44;10.60;;;7.07;;
55684;SDS011;41883;49.544;8.646;2022-12-07T13:58:09;10.00;;;6.93;;
55684;SDS011;41883;49.544;8.646;2022-12-07T14:00:35;10.63;;;5.93;;
55684;SDS011;41883;49.544;8.646;2022-12-07T14:03:04;9.95;;;5.57;;
55684;SDS011;41883;49.544;8.646;2022-12-07T14:05:46;9.57;;;4.75;;
55684;SDS011;41883;49.544;8.646;2022-12-07T14:10:38;6.03;;;4.00;;
55684;SDS011;41883;49.544;8.646;2022-12-07T14:13:18;6.57;;;4.03;;
55684;SDS011;41883;49.544;8.646;2022-12-07T14:15:49;5.40;;;3.63;;
55684;SDS011;41883;49.544;8.646;2022-12-07T14:23:29;5.50;;;3.10;;
55684;SDS011;41883;49.544;8.646;2022-12-07T14:26:03;3.57;;;2.57;;
55684;SDS011;41883;49.544;8.646;2022-12-07T14:28:33;5.00;;;3.47;;
55684;SDS011;41883;49.544;8.646;2022-12-07T14:30:59;6.78;;;3.83;;
55684;SDS011;41883;49.544;8.646;2022-12-07T14:33:25;7.90;;;3.72;;
55684;SDS011;41883;49.544;8.646;2022-12-07T14:35:51;6.25;;;3.50;;
55684;SDS011;41883;49.544;8.646;2022-12-07T14:38:20;6.50;;;3.58;;
55684;SDS011;41883;49.544;8.646;2022-12-07T14:40:45;5.50;;;3.40;;
55684;SDS011;41883;49.544;8.646;2022-12-07T14:43:11;5.60;;;3.28;;
55684;SDS011;41883;49.544;8.646;2022-12-07T14:45:37;5.10;;;3.13;;
55684;SDS011;41883;49.544;8.646;2022-12-07T14:48:04;5.10;;;2.72;;
55684;SDS011;41883;49.544;8.646;2022-12-07T14:50:29;4.67;;;2.97;;
55684;SDS011;41883;49.544;8.646;2022-12-07T14:52:56;6.10;;;3.28;;
55684;SDS011;41883;49.544;8.646;2022-12-07T14:55:23;3.92;;;2.90;;
55684;SDS011;41883;49.544;8.646;2022-12-07T14:57:49;4.40;;;2.65;;
55684;SDS011;41883;49.544;8.646;2022-12-07T15:00:14;4.03;;;2.57;;
55684;SDS011;41883;49.544;8.646;2022-12-07T15:02:40;4.05;;;2.95;;
55684;SDS011;41883;49.544;8.646;2022-12-07T15:05:05;4.55;;;2.97;;
55684;SDS011;41883;49.544;8.646;2022-12-07T15:07:31;5.43;;;3.35;;
55684;SDS011;41883;49.544;8.646;2022-12-07T15:09:56;8.15;;;3.40;;
55684;SDS011;41883;49.544;8.646;2022-12-07T15:12:21;8.43;;;4.20;;
55684;SDS011;41883;49.544;8.646;2022-12-07T15:14:46;6.85;;;4.00;;
55684;SDS011;41883;49.544;8.646;2022-12-07T15:17:12;7.57;;;4.28;;
55684;SDS011;41883;49.544;8.646;2022-12-07T15:19:38;8.00;;;4.30;;
55684;SDS011;41883;49.544;8.646;2022-12-07T15:22:03;6.13;;;3.60;;
55684;SDS011;41883;49.544;8.646;2022-12-07T15:24:28;6.30;;;3.80;;
55684;SDS011;41883;49.544;8.646;2022-12-07T15:26:53;7.03;;;3.97;;
55684;SDS011;41883;49.544;8.646;2022-12-07T15:29:19;6.38;;;3.78;;
55684;SDS011;41883;49.544;8.646;2022-12-07T15:31:44;6.45;;;3.67;;
55684;SDS011;41883;49.544;8.646;2022-12-07T15:34:10;7.47;;;4.18;;
55684;SDS011;41883;49.544;8.646;2022-12-07T15:36:35;7.03;;;4.17;;
55684;SDS011;41883;49.544;8.646;2022-12-07T15:39:00;6.17;;;4.23;;
55684;SDS011;41883;49.544;8.646;2022-12-07T15:41:26;6.03;;;4.03;;
55684;SDS011;41883;49.544;8.646;2022-12-07T15:43:51;6.53;;;4.15;;
55684;SDS011;41883;49.544;8.646;2022-12-07T15:46:36;5.88;;;3.78;;
55684;SDS011;41883;49.544;8.646;2022-12-07T15:49:02;6.30;;;4.00;;
55684;SDS011;41883;49.544;8.646;2022-12-07T15:51:28;6.93;;;3.92;;
55684;SDS011;41883;49.544;8.646;2022-12-07T15:53:53;6.47;;;3.78;;
55684;SDS011;41883;49.544;8.646;2022-12-07T15:56:19;6.28;;;3.65;;
55684;SDS011;41883;49.544;8.646;2022-12-07T15:58:44;6.22;;;3.58;;
55684;SDS011;41883;49.544;8.646;2022-12-07T16:01:10;6.18;;;3.92;;
55684;SDS011;41883;49.544;8.646;2022-12-07T16:03:36;6.50;;;3.88;;
55684;SDS011;41883;49.544;8.646;2022-12-07T16:06:01;7.00;;;4.30;;
55684;SDS011;41883;49.544;8.646;2022-12-07T16:08:26;6.47;;;4.10;;
55684;SDS011;41883;49.544;8.646;2022-12-07T16:10:51;7.60;;;4.77;;
55684;SDS011;41883;49.544;8.646;2022-12-07T16:13:16;7.43;;;4.57;;
55684;SDS011;41883;49.544;8.646;2022-12-07T16:15:44;7.72;;;4.18;;
55684;SDS011;41883;49.544;8.646;2022-12-07T16:18:09;7.28;;;4.75;;
55684;SDS011;41883;49.544;8.646;2022-12-07T16:20:34;7.47;;;4.67;;
55684;SDS011;41883;49.544;8.646;2022-12-07T16:23:00;7.95;;;4.97;;
55684;SDS011;41883;49.544;8.646;2022-12-07T16:25:25;8.73;;;4.90;;
55684;SDS011;41883;49.544;8.646;2022-12-07T16:27:51;9.38;;;5.30;;
55684;SDS011;41883;49.544;8.646;2022-12-07T16:30:16;6.78;;;5.07;;
55684;SDS011;41883;49.544;8.646;2022-12-07T16:32:41;6.90;;;4.80;;
55684;SDS011;41883;49.544;8.646;2022-12-07T16:35:07;9.35;;;5.30;;
55684;SDS011;41883;49.544;8.646;2022-12-07T16:37:33;9.93;;;5.55;;
55684;SDS011;41883;49.544;8.646;2022-12-07T16:39:58;8.50;;;5.60;;
55684;SDS011;41883;49.544;8.646;2022-12-07T16:42:23;9.53;;;5.67;;
55684;SDS011;41883;49.544;8.646;2022-12-07T16:44:48;10.80;;;6.10;;
55684;SDS011;41883;49.544;8.646;2022-12-07T16:47:13;9.57;;;5.93;;